| time (UTC) | temp F | wind direction | speed MPH | gust MPH | rain 1hr in | rain 24hr in | rain mn in | humidity % | barometer mb |
| 20260831233033 | 0 | 229 | 1.0 | 9.0 | 0.00 | 0.00 | 0.00 | 1008.7 | |
| 20260831231539 | 0 | 214 | 3.0 | 9.0 | 0.00 | 0.00 | 0.00 | 1008.6 | |
| 20260831230033 | 0 | 240 | 3.0 | 7.0 | 0.00 | 0.00 | 0.00 | 1008.6 | |
| 20260831224542 | 0 | 211 | 5.0 | 8.0 | 0.00 | 0.00 | 0.00 | 1008.8 | |
| 20260831223045 | 0 | 215 | 6.0 | 12.0 | 0.00 | 0.00 | 0.00 | 1008.8 | |
| 20260831221535 | 0 | 250 | 5.0 | 11.0 | 0.00 | 0.00 | 0.00 | 1009.0 | |
| 20260831220050 | 0 | 241 | 3.0 | 11.0 | 0.00 | 0.00 | 0.00 | 1009.0 | |
| 20260831214537 | 0 | 241 | 4.0 | 10.0 | 0.00 | 0.00 | 0.00 | 1009.4 | |
| 20260831213042 | 0 | 224 | 6.0 | 11.0 | 0.00 | 0.00 | 0.00 | 1009.5 | |
| 20260831211528 | 0 | 244 | 5.0 | 11.0 | 0.00 | 0.00 | 0.00 | 1009.6 | |
| 20260831210100 | 0 | 205 | 3.0 | 8.0 | 0.00 | 0.00 | 0.00 | 1009.6 | |
| 20260831204530 | 0 | 211 | 2.0 | 6.0 | 0.00 | 0.00 | 0.00 | 1009.8 | |
| 20260831203032 | 0 | 360 | 4.0 | 8.0 | 0.00 | 0.00 | 0.00 | 1010.1 | |
| 20260831201542 | 0 | 11 | 0.0 | 1.0 | 0.00 | 0.00 | 0.00 | 1010.3 | |
| 20260831200038 | 0 | 17 | 0.0 | 4.0 | 0.00 | 0.00 | 0.00 | 1010.4 | |
| 20260831194604 | 0 | 153 | 0.0 | 1.0 | 0.00 | 0.00 | 0.00 | 1010.6 | |
| 20260831193045 | 0 | 70 | 0.0 | 4.0 | 0.00 | 0.00 | 0.00 | 1010.9 | |
| 20260831191530 | 0 | 59 | 0.0 | 11.0 | 0.00 | 0.00 | 0.00 | 1011.1 | |
| 20260831190045 | 0 | 10 | 0.0 | 0.0 | 0.00 | 0.00 | 0.00 | 1011.3 | |
| 20260831184537 | 0 | 57 | 0.0 | 4.0 | 0.00 | 0.00 | 0.00 | 1011.4 | |
| 20260831183038 | 0 | 21 | 2.0 | 11.0 | 0.00 | 0.00 | 0.00 | 1011.7 | |
| 20260831181528 | 0 | 84 | 0.0 | 7.0 | 0.00 | 0.00 | 0.00 | 1011.9 | |
| 20260831180040 | 0 | 23 | 0.0 | 5.0 | 0.00 | 0.00 | 0.00 | 1012.0 | |
| 20260831174527 | 0 | 5 | 1.0 | 4.0 | 0.00 | 0.00 | 0.00 | 1012.1 | |
| 20260831173034 | 0 | 13 | 0.0 | 0.0 | 0.00 | 0.00 | 0.00 | 1012.2 | |
| 20260831171600 | 0 | 9 | 0.0 | 0.0 | 0.00 | 0.00 | 0.00 | 1012.3 | |
| 20260831170035 | 0 | 217 | 0.0 | 0.0 | 0.00 | 0.00 | 0.00 | 1012.4 | |
| 20260831164547 | 0 | 214 | 0.0 | 0.0 | 0.00 | 0.00 | 0.00 | 1012.5 | |
| 20260831163030 | 0 | 317 | 0.0 | 0.0 | 0.00 | 0.00 | 0.00 | 1012.7 | |
| 20260831161536 | 0 | 339 | 0.0 | 0.0 | 0.00 | 0.00 | 0.00 | 1012.9 | |
| 20260831160034 | 0 | 339 | 0.0 | 0.0 | 0.00 | 0.00 | 0.00 | 1013.1 | |
| 20260831154540 | 0 | 339 | 0.0 | 0.0 | 0.00 | 0.00 | 0.00 | 1013.1 | |
| 20260831153027 | 0 | 337 | 0.0 | 0.0 | 0.00 | 0.00 | 0.00 | 1013.1 | |
| 20260831151532 | 0 | 337 | 0.0 | 0.0 | 0.00 | 0.00 | 0.00 | 1013.1 | |
| 20260831150027 | 0 | 337 | 0.0 | 0.0 | 0.00 | 0.00 | 0.00 | 1013.2 | |
| 20260831144538 | 0 | 337 | 0.0 | 0.0 | 0.00 | 0.00 | 0.00 | 1013.3 | |
| 20260831143039 | 0 | 337 | 0.0 | 0.0 | 0.00 | 0.00 | 0.00 | 1013.5 | |
| 20260831141605 | 0 | 337 | 0.0 | 0.0 | 0.00 | 0.00 | 0.00 | 1013.5 | |
| 20260831140041 | 0 | 337 | 0.0 | 0.0 | 0.00 | 0.00 | 0.00 | 1013.6 | |
| 20260831134527 | 0 | 337 | 0.0 | 0.0 | 0.00 | 0.00 | 0.00 | 1013.4 | |
| 20260831133036 | 0 | 337 | 0.0 | 0.0 | 0.00 | 0.00 | 0.00 | 1013.5 | |
| 20260831131542 | 0 | 337 | 0.0 | 0.0 | 0.00 | 0.00 | 0.00 | 1013.5 | |
| 20260831130037 | 0 | 337 | 0.0 | 0.0 | 0.00 | 0.00 | 0.00 | 1013.5 | |
| 20260831124528 | 0 | 337 | 0.0 | 0.0 | 0.00 | 0.00 | 0.00 | 1013.8 | |
| 20260831123032 | 0 | 337 | 0.0 | 0.0 | 0.00 | 0.00 | 0.00 | 1013.8 | |
| 20260831121542 | 0 | 337 | 0.0 | 0.0 | 0.00 | 0.00 | 0.00 | 1013.9 | |
| 20260831120039 | 0 | 337 | 0.0 | 0.0 | 0.00 | 0.00 | 0.00 | 1014.0 | |
| 20260831114527 | 0 | 321 | 0.0 | 0.0 | 0.00 | 0.00 | 0.00 | 1014.1 | |
| 20260831113034 | 0 | 321 | 0.0 | 0.0 | 0.00 | 0.00 | 0.00 | 1014.2 | |
| 20260831111540 | 0 | 321 | 0.0 | 0.0 | 0.00 | 0.00 | 0.00 | 1014.3 | |
| 20260831110039 | 0 | 321 | 0.0 | 0.0 | 0.00 | 0.00 | 0.00 | 1014.3 | |
| 20260831104545 | 0 | 319 | 0.0 | 0.0 | 0.00 | 0.00 | 0.00 | 1014.4 | |
| 20260831103027 | 0 | 319 | 0.0 | 0.0 | 0.00 | 0.00 | 0.00 | 1014.5 | |
| 20260831101558 | 0 | 319 | 0.0 | 0.0 | 0.00 | 0.00 | 0.00 | 1014.4 | |
| 20260831100032 | 0 | 319 | 0.0 | 0.0 | 0.00 | 0.00 | 0.00 | 1014.6 | |
| 20260831094544 | 0 | 319 | 0.0 | 0.0 | 0.00 | 0.00 | 0.00 | 1014.8 | |
| 20260831093028 | 0 | 319 | 0.0 | 0.0 | 0.00 | 0.00 | 0.00 | 1014.8 | |
| 20260831091555 | 0 | 319 | 0.0 | 0.0 | 0.00 | 0.00 | 0.00 | 1014.9 | |
| 20260831090031 | 0 | 319 | 0.0 | 0.0 | 0.00 | 0.00 | 0.00 | 1015.1 | |
| 20260831084539 | 0 | 319 | 0.0 | 0.0 | 0.00 | 0.00 | 0.00 | 1015.2 | |
| 20260831083026 | 0 | 319 | 0.0 | 0.0 | 0.00 | 0.00 | 0.00 | 1015.4 | |
| 20260831081530 | 0 | 319 | 0.0 | 0.0 | 0.00 | 0.00 | 0.00 | 1015.5 | |
| 20260831080026 | 0 | 319 | 0.0 | 0.0 | 0.00 | 0.00 | 0.00 | 1015.5 | |
| 20260831074538 | 0 | 319 | 0.0 | 0.0 | 0.00 | 0.00 | 0.00 | 1015.7 | |
| 20260831073042 | 0 | 319 | 0.0 | 0.0 | 0.00 | 0.00 | 0.00 | 1015.8 | |
| 20260831071527 | 0 | 319 | 0.0 | 0.0 | 0.00 | 0.00 | 0.00 | 1016.1 | |
| 20260831070104 | 0 | 319 | 0.0 | 0.0 | 0.00 | 0.00 | 0.00 | 1016.2 | |
| 20260831064530 | 0 | 319 | 0.0 | 0.0 | 0.00 | 0.00 | 0.00 | 1016.5 | |
| 20260831063036 | 0 | 319 | 0.0 | 0.0 | 0.00 | 0.00 | 0.00 | 1016.6 | |
| 20260831061541 | 0 | 319 | 0.0 | 0.0 | 0.00 | 0.00 | 0.00 | 1016.7 | |
| 20260831060055 | 0 | 319 | 0.0 | 0.0 | 0.00 | 0.00 | 0.00 | 1016.7 | |
| 20260831054544 | 0 | 319 | 0.0 | 0.0 | 0.00 | 0.00 | 0.00 | 1016.9 | |
| 20260831053028 | 0 | 319 | 0.0 | 0.0 | 0.00 | 0.00 | 0.00 | 1017.0 | |
| 20260831051534 | 0 | 318 | 0.0 | 0.0 | 0.00 | 0.00 | 0.00 | 1017.2 | |
| 20260831050033 | 0 | 318 | 0.0 | 0.0 | 0.00 | 0.00 | 0.00 | 1017.3 | |
| 20260831044601 | 0 | 318 | 0.0 | 0.0 | 0.00 | 0.00 | 0.00 | 1017.3 | |
| 20260831043027 | 0 | 318 | 0.0 | 0.0 | 0.00 | 0.00 | 0.00 | 1017.4 | |
| 20260831041533 | 0 | 318 | 0.0 | 0.0 | 0.00 | 0.00 | 0.00 | 1017.6 | |
| 20260831040030 | 0 | 318 | 0.0 | 0.0 | 0.00 | 0.00 | 0.00 | 1017.6 | |
| 20260831034603 | 0 | 318 | 0.0 | 0.0 | 0.00 | 0.00 | 0.00 | 1017.5 | |
| 20260831033104 | 0 | 318 | 0.0 | 0.0 | 0.00 | 0.00 | 0.00 | 1017.4 | |
| 20260831031548 | 0 | 315 | 0.0 | 0.0 | 0.00 | 0.00 | 0.00 | 1017.4 | |
| 20260831030028 | 0 | 317 | 0.0 | 0.0 | 0.00 | 0.00 | 0.00 | 1017.3 | |
| 20260831024535 | 0 | 321 | 0.0 | 0.0 | 0.00 | 0.00 | 0.00 | 1017.4 | |
| 20260831023039 | 0 | 321 | 0.0 | 0.0 | 0.00 | 0.00 | 0.00 | 1017.5 | |
| 20260831021529 | 0 | 319 | 0.0 | 0.0 | 0.00 | 0.00 | 0.00 | 1017.6 | |
| 20260831020044 | 0 | 300 | 0.0 | 0.0 | 0.00 | 0.00 | 0.00 | 1017.7 | |
| 20260831014536 | 0 | 13 | 0.0 | 0.0 | 0.00 | 0.00 | 0.00 | 1017.8 | |
| 20260831013036 | 0 | 246 | 0.0 | 5.0 | 0.00 | 0.00 | 0.00 | 1017.8 | |
| 20260831011541 | 0 | 270 | 0.0 | 8.0 | 0.00 | 0.00 | 0.00 | 1018.0 | |
| 20260831010040 | 0 | 262 | 0.0 | 5.0 | 0.00 | 0.00 | 0.00 | 1017.9 | |
| 20260831004527 | 0 | 284 | 2.0 | 6.0 | 0.00 | 0.00 | 0.00 | 1018.0 | |
| 20260831003034 | 0 | 253 | 3.0 | 7.0 | 0.00 | 0.00 | 0.00 | 1018.2 | |
| 20260831001541 | 0 | 242 | 3.0 | 8.0 | 0.00 | 0.00 | 0.00 | 1018.3 | |
| 20260831000037 | 0 | 262 | 4.0 | 6.0 | 0.00 | 0.00 | 0.00 | 1018.5 | |
| 20260830234528 | 0 | 217 | 3.0 | 9.0 | 0.00 | 0.00 | 0.00 | 1018.5 |